KRNT - Renton
Updated: Fri, 17-Nov-2017 2:53pm PST

 Wind from S
Wind: S 8 mph , 13 km/h
Temperature: 50°F , 10°C
Wind Chill: 47°F , 8°C
Dew Point: 39°F , 4°C
Humidity: 67%
Barometer: 30.17 inHg , 1021.7 hPa
Visibility: 10 miles , 16 km
Cloud details: 4200 ft
4900 ft
7500 ft
2017/11/17 22:53 KRNT 172253Z 18007KT 10SM SCT042 BKN049 BKN075 10/04 A3017 RMK AO2 SLP223 T01000039
KBFI - Seattle-Boeing
Updated: Fri, 17-Nov-2017 2:53pm PST

 Wind from S
Wind: S 10 mph , 17 km/h, Gust: 17 mph , 28 km/h
Temperature: 50°F , 10°C
Wind Chill: 46°F , 8°C
Dew Point: 39°F , 4°C
Humidity: 67%
Barometer: 30.17 inHg , 1021.7 hPa
Visibility: 10 miles , 16 km
Cloud details: 3000 ft
4400 ft
2017/11/17 22:53 KBFI 172253Z 18009G15KT 130V210 10SM FEW030 SCT044 10/04 A3017 RMK AO2 SLP217 T01000039
 
KSEA - Seattle
Updated: Fri, 17-Nov-2017 2:53pm PST

 Wind from SSW
Wind: SSW 14 mph , 22 km/h, Gust: 22 mph , 35 km/h
Temperature: 48°F , 9°C
Wind Chill: 42°F , 6°C
Dew Point: 37°F , 3°C
Humidity: 66%
Barometer: 30.17 inHg , 1021.7 hPa
Visibility: 10 miles , 16 km
Cloud details: 2400 ft
3000 ft
7000 ft
2017/11/17 22:53 KSEA 172253Z 21012G19KT 10SM FEW024 SCT030 BKN070 09/03 A3017 RMK AO2 SLP223 T00940033
KSMP - Stampede Pass
Updated: Fri, 17-Nov-2017 3:13pm PST
Light snow, Mist, Overcast
Light snow, Mist, Overcast
 Wind from WSW
Wind: WSW 12 mph , 19 km/h, Gust: 23 mph , 37 km/h
Temperature: 30°F , -1°C
Wind Chill: 20°F , -7°C
Dew Point: 28°F , -2°C
Humidity: 93%
Barometer: 30.05 inHg , 1017.6 hPa
Summary: Light snow, Mist
Visibility: 1 mile , 2 km
Cloud details: 300 ft
800 ft
1200 ft
2017/11/17 23:13 KSMP 172313Z AUTO 24010G20KT 180V280 1SM -SN BR FEW003 BKN008 OVC012 M01/M02 A3005 RMK AO2 P0004 T10111017